Time;durP1;ratioP1;P1;durP2;ratioP2;P2;SDS_P1;SDS_P2;PMS_P1;PMS_P2;Temp;Humidity;BMP_temperature;BMP_pressure;BME280_temperature;BME280_humidity;BME280_pressure;Samples;Min_cycle;Max_cycle;Signal;HPM_P1;HPM_P2
2022/01/08 00:01:17;;;;;;;3.60;1.63;;;7.90;63.80;;;-142.21;100.00;112049.66;4934738;29;20529;-80
2022/01/08 00:03:44;;;;;;;2.27;1.70;;;8.00;63.50;;;-142.21;99.52;112049.66;4934533;29;20581;-80
2022/01/08 00:06:12;;;;;;;3.10;1.70;;;8.00;63.40;;;-142.21;100.00;112049.66;4933679;29;20630;-79
2022/01/08 00:08:40;;;;;;;2.57;1.77;;;8.00;62.80;;;-142.21;99.95;112049.66;4935766;29;20923;-79
2022/01/08 00:11:10;;;;;;;2.27;1.80;;;7.90;63.00;;;-142.21;99.62;112049.66;4935551;29;20461;-79
2022/01/08 00:13:40;;;;;;;1.70;1.47;;;8.00;63.50;;;-142.21;99.84;112049.66;4921178;29;20455;-78
2022/01/08 00:16:09;;;;;;;2.07;1.60;;;7.90;63.50;;;-142.21;100.00;112049.66;4927081;29;20485;-78
2022/01/08 00:18:36;;;;;;;2.07;1.60;;;8.00;63.90;;;-142.21;99.88;112049.66;4917981;29;20503;-80
2022/01/08 00:21:03;;;;;;;2.23;1.60;;;8.00;63.60;;;-142.21;100.00;112049.66;4915583;29;20546;-80
2022/01/08 00:23:31;;;;;;;3.17;2.00;;;8.10;63.60;;;-142.21;100.00;112049.66;4934646;29;20458;-80
2022/01/08 00:25:59;;;;;;;3.23;1.60;;;8.10;63.60;;;-142.21;99.86;112049.66;4935398;29;20541;-79
2022/01/08 00:28:26;;;;;;;2.27;1.50;;;8.00;63.70;;;-142.21;99.84;112049.66;4934682;29;20500;-79
2022/01/08 00:30:55;;;;;;;2.93;1.90;;;8.10;63.60;;;-142.21;99.39;112049.66;4929051;29;20450;-80
2022/01/08 00:33:23;;;;;;;1.97;1.53;;;8.20;63.20;;;-142.21;99.43;112049.66;4932958;29;20454;-80
2022/01/08 00:35:50;;;;;;;2.27;1.47;;;8.20;63.00;;;-142.21;99.93;112049.66;4916553;29;20482;-80
2022/01/08 00:38:32;;;;;;;2.42;1.70;;;8.30;63.10;;;-142.21;98.63;112049.66;4934495;29;20473;-80
2022/01/08 00:41:01;;;;;;;1.93;1.50;;;8.40;61.40;;;-142.21;98.57;112049.66;4930103;29;20289;-80
2022/01/08 00:43:29;;;;;;;1.73;1.40;;;8.30;61.70;;;-142.21;98.79;112049.66;4921933;29;20630;-80
2022/01/08 00:45:57;;;;;;;1.87;1.50;;;8.30;61.80;;;-142.21;98.50;112049.66;4937817;28;20507;-80
2022/01/08 00:48:25;;;;;;;1.87;1.70;;;8.30;60.60;;;-142.21;98.85;112049.66;4934278;29;20573;-80
2022/01/08 00:50:53;;;;;;;1.63;1.53;;;8.30;61.00;;;-142.21;98.64;112049.66;4936017;29;20454;-80
2022/01/08 00:53:21;;;;;;;2.83;1.67;;;8.40;60.60;;;-142.21;98.67;112049.66;4935982;29;20977;-80
2022/01/08 00:55:50;;;;;;;2.90;1.60;;;8.40;60.90;;;-142.21;97.55;112049.66;4929215;29;20557;-80
2022/01/08 00:58:20;;;;;;;2.97;1.70;;;8.40;59.80;;;-142.21;97.79;112049.66;4919066;29;20616;-78
2022/01/08 01:00:49;;;;;;;2.33;1.37;;;8.30;60.20;;;-142.21;97.80;112049.66;4934709;29;20492;-80
2022/01/08 01:03:17;;;;;;;2.13;1.60;;;8.30;60.10;;;-142.21;98.32;112049.66;4934796;29;20516;-80
2022/01/08 01:05:45;;;;;;;2.50;1.60;;;8.30;60.00;;;-142.21;98.94;112049.66;4933640;29;20557;-80
2022/01/08 01:08:14;;;;;;;3.73;1.70;;;8.30;60.50;;;-142.21;100.00;112049.66;4934538;29;20497;-79
2022/01/08 01:10:41;;;;;;;1.50;1.40;;;8.30;61.10;;;-142.21;99.23;112049.66;4935982;29;20481;-80
2022/01/08 01:13:10;;;;;;;2.20;1.30;;;8.30;60.80;;;-142.21;99.84;112049.66;4928593;29;20584;-79
2022/01/08 01:15:37;;;;;;;2.43;1.70;;;8.20;61.10;;;-142.21;100.00;112049.66;4934402;29;20478;-80
2022/01/08 01:18:05;;;;;;;3.37;1.60;;;8.30;62.00;;;-142.21;100.00;112049.66;4935131;29;20807;-79
2022/01/08 01:20:34;;;;;;;3.20;1.53;;;8.30;61.90;;;-142.21;100.00;112049.66;4936378;29;20472;-79
2022/01/08 01:23:09;;;;;;;1.57;1.43;;;8.20;62.30;;;-142.21;100.00;112049.66;4933801;29;20533;-79
2022/01/08 01:25:41;;;;;;;2.93;1.30;;;8.30;63.10;;;-142.21;100.00;112049.66;4935578;29;20496;-80
2022/01/08 01:42:50;;;;;;;1.70;1.10;;;8.20;64.70;;;-142.21;100.00;112049.66;4935802;29;20611;-79
2022/01/08 01:48:08;;;;;;;2.20;1.40;;;8.30;64.80;;;-142.21;100.00;112049.66;4921627;29;20500;-80
2022/01/08 01:50:36;;;;;;;3.83;1.17;;;8.40;65.70;;;-142.21;100.00;112049.66;4937787;29;20452;-79
2022/01/08 01:53:06;;;;;;;3.17;1.50;;;8.50;66.10;;;-142.21;100.00;112049.66;4938232;29;21030;-80
2022/01/08 01:55:33;;;;;;;2.33;1.30;;;8.60;66.40;;;-142.21;100.00;112049.66;4939237;29;20476;-80
2022/01/08 01:58:05;;;;;;;3.03;1.70;;;8.60;65.90;;;-142.21;100.00;112049.66;4934520;29;21012;-80
2022/01/08 02:00:33;;;;;;;3.33;1.37;;;8.60;65.70;;;-142.21;100.00;112049.66;4936872;29;20446;-80
2022/01/08 02:03:00;;;;;;;4.53;1.97;;;8.50;66.40;;;-142.21;100.00;112049.66;4937425;29;20576;-80
2022/01/08 02:05:28;;;;;;;3.30;1.80;;;8.50;66.40;;;-142.21;100.00;112049.66;4937448;29;20557;-80
2022/01/08 02:07:56;;;;;;;3.60;1.50;;;8.50;67.00;;;-142.21;100.00;112049.66;4937943;29;20570;-80
2022/01/08 02:10:25;;;;;;;1.50;1.30;;;8.40;67.60;;;-142.21;100.00;112049.66;4937307;29;20525;-79
2022/01/08 02:12:53;;;;;;;1.60;1.30;;;8.40;68.20;;;-142.21;100.00;112049.66;4932993;29;20455;-80
2022/01/08 02:15:20;;;;;;;2.83;1.40;;;8.50;68.40;;;-142.21;100.00;112049.66;4917774;29;20470;-80
2022/01/08 02:17:47;;;;;;;4.10;1.70;;;8.60;69.20;;;-142.21;100.00;112049.66;4922502;29;20552;-80
2022/01/08 02:20:16;;;;;;;3.67;1.50;;;8.60;68.50;;;-142.21;100.00;112049.66;4938059;29;20461;-80
2022/01/08 02:22:43;;;;;;;3.60;1.60;;;8.60;68.90;;;-142.21;100.00;112049.66;4937008;29;20493;-80
2022/01/08 02:25:11;;;;;;;1.77;1.37;;;8.50;69.10;;;-142.21;100.00;112049.66;4936953;29;20458;-80
2022/01/08 02:27:41;;;;;;;2.63;1.57;;;8.50;69.70;;;-142.21;100.00;112049.66;4936877;29;20498;-80
2022/01/08 02:30:09;;;;;;;1.53;1.43;;;8.40;71.00;;;-142.21;100.00;112049.66;4936205;29;20474;-79
2022/01/08 02:32:38;;;;;;;1.43;1.23;;;8.40;70.80;;;-142.21;100.00;112049.66;4919882;29;21010;-79
2022/01/08 02:35:06;;;;;;;3.13;1.47;;;8.30;71.50;;;-142.21;100.00;112049.66;4921540;29;20859;-79
2022/01/08 02:37:41;;;;;;;2.53;1.67;;;8.30;71.70;;;-142.21;100.00;112049.66;4937562;29;20874;-80
2022/01/08 02:40:11;;;;;;;2.57;1.00;;;8.30;72.90;;;-142.21;100.00;112049.66;4937756;29;20464;-80
2022/01/08 02:42:48;;;;;;;2.17;1.47;;;8.10;73.70;;;-142.21;100.00;112049.66;4936757;29;20485;-79
2022/01/08 02:45:17;;;;;;;1.50;1.40;;;8.10;73.40;;;-142.21;100.00;112049.66;4936405;29;20450;-80
2022/01/08 02:47:54;;;;;;;1.17;1.00;;;8.10;73.40;;;-142.21;100.00;112049.66;4936202;29;20481;-80
2022/01/08 02:50:27;;;;;;;4.10;1.40;;;8.00;74.90;;;-142.21;100.00;112049.66;4932877;29;20568;-78
2022/01/08 02:52:56;;;;;;;1.43;1.30;;;7.90;74.30;;;-142.21;100.00;112049.66;4938404;29;20505;-80
2022/01/08 02:55:23;;;;;;;3.50;2.50;;;7.90;74.80;;;-142.21;100.00;112049.66;4936332;29;20454;-79
2022/01/08 02:57:50;;;;;;;1.73;1.10;;;7.90;74.60;;;-142.21;100.00;112049.66;4936705;29;20465;-80
2022/01/08 03:00:20;;;;;;;1.03;1.00;;;7.90;74.90;;;-142.21;100.00;112049.66;4935776;29;20458;-79
2022/01/08 03:02:50;;;;;;;1.23;1.10;;;7.90;75.40;;;-142.21;100.00;112049.66;4936437;29;20862;-80
2022/01/08 03:05:17;;;;;;;1.55;1.05;;;7.80;76.30;;;-142.21;100.00;112049.66;4937754;29;20881;-79
2022/01/08 03:07:47;;;;;;;1.53;1.07;;;7.80;76.00;;;-142.21;100.00;112049.66;4935601;29;20616;-79
2022/01/08 03:10:18;;;;;;;0.80;0.70;;;7.80;75.50;;;-142.21;100.00;112049.66;4936440;29;20513;-79
2022/01/08 03:12:47;;;;;;;0.90;0.80;;;7.80;76.00;;;-142.21;100.00;112049.66;4935797;29;20438;-80
2022/01/08 03:15:16;;;;;;;0.93;0.60;;;7.80;76.30;;;-142.21;100.00;112049.66;4935805;29;20544;-80
2022/01/08 03:17:44;;;;;;;1.30;0.80;;;7.80;76.40;;;-142.21;100.00;112049.66;4935396;29;20541;-79
2022/01/08 03:20:14;;;;;;;2.10;0.87;;;7.70;76.60;;;-142.21;100.00;112049.66;4936861;29;20206;-80
2022/01/08 03:22:46;;;;;;;1.30;0.80;;;7.70;76.70;;;-142.21;100.00;112049.66;4929685;29;20450;-81
2022/01/08 03:25:16;;;;;;;0.90;0.90;;;7.70;77.60;;;-142.21;100.00;112049.66;4935390;29;20532;-78
2022/01/08 03:27:44;;;;;;;1.00;0.97;;;7.60;78.10;;;-142.21;100.00;112049.66;4935304;29;20450;-79
2022/01/08 03:30:14;;;;;;;0.80;0.80;;;7.70;77.50;;;-142.21;100.00;112049.66;4919055;29;20882;-80
2022/01/08 03:32:41;;;;;;;1.90;0.90;;;7.80;77.80;;;-142.21;100.00;112049.66;4935174;29;20450;-80
2022/01/08 03:35:11;;;;;;;3.73;1.33;;;7.80;77.10;;;-142.21;100.00;112049.66;4921418;29;20486;-80
2022/01/08 03:37:39;;;;;;;1.30;1.20;;;7.80;77.70;;;-142.21;100.00;112049.66;4933307;29;20865;-78
2022/01/08 03:40:08;;;;;;;1.30;1.20;;;7.90;76.90;;;-142.21;100.00;112049.66;4935203;29;20846;-78
2022/01/08 03:42:37;;;;;;;1.10;1.00;;;7.80;76.90;;;-142.21;100.00;112049.66;4908407;29;20497;-80
2022/01/08 03:45:05;;;;;;;1.30;1.20;;;7.80;77.20;;;-142.21;100.00;112049.66;4956149;28;20535;-79
2022/01/08 03:47:53;;;;;;;1.33;1.20;;;7.70;77.50;;;-142.21;100.00;112049.66;4968069;28;20969;-77
2022/01/08 03:50:21;;;;;;;1.53;1.43;;;7.70;77.40;;;-142.21;100.00;112049.66;4969046;28;20500;-77
2022/01/08 03:52:50;;;;;;;2.43;1.20;;;7.70;77.50;;;-142.21;100.00;112049.66;4973557;28;20448;-77
2022/01/08 03:55:17;;;;;;;1.60;1.40;;;7.70;77.60;;;-142.21;100.00;112049.66;4958850;28;20453;-75
2022/01/08 03:57:47;;;;;;;1.57;1.10;;;7.70;77.30;;;-142.21;100.00;112049.66;4965480;28;20454;-78
2022/01/08 04:00:16;;;;;;;3.17;1.20;;;7.50;77.50;;;-142.21;100.00;112049.66;4966938;28;20817;-76
2022/01/08 04:02:43;;;;;;;1.40;1.30;;;7.60;78.10;;;-142.21;100.00;112049.66;4968516;28;20460;-76
2022/01/08 04:05:11;;;;;;;1.87;1.27;;;7.60;77.60;;;-142.21;100.00;112049.66;4984277;28;21011;-76
2022/01/08 04:07:39;;;;;;;1.90;1.27;;;7.60;77.60;;;-142.21;100.00;112049.66;4969714;28;20448;-77
2022/01/08 04:10:07;;;;;;;1.17;1.00;;;7.60;76.90;;;-142.21;100.00;112049.66;4973298;28;20487;-79
2022/01/08 04:12:40;;;;;;;1.20;1.10;;;7.50;76.70;;;-142.21;100.00;112049.66;4969594;28;20867;-77
2022/01/08 04:15:31;;;;;;;1.40;1.30;;;7.40;76.80;;;-142.21;100.00;112049.66;4958051;28;20869;-78
2022/01/08 04:17:59;;;;;;;1.83;1.40;;;7.30;77.50;;;-142.21;100.00;112049.66;4958893;28;20451;-78
2022/01/08 04:20:26;;;;;;;1.30;1.20;;;7.30;77.60;;;-142.21;100.00;112049.66;4963179;28;20543;-78
2022/01/08 04:22:53;;;;;;;2.20;1.33;;;7.30;77.40;;;-142.21;100.00;112049.66;4973378;28;20841;-80
2022/01/08 04:25:24;;;;;;;1.50;1.40;;;7.30;77.50;;;-142.21;100.00;112049.66;4973449;28;20208;-80
2022/01/08 04:27:52;;;;;;;3.37;1.30;;;7.20;77.70;;;-142.21;100.00;112049.66;4965210;28;20451;-79
2022/01/08 04:30:21;;;;;;;1.17;1.07;;;7.20;77.80;;;-142.21;100.00;112049.66;4960860;28;20495;-79
2022/01/08 04:32:48;;;;;;;2.57;1.50;;;7.20;78.00;;;-142.21;100.00;112049.66;4972738;28;20439;-80
2022/01/08 04:35:16;;;;;;;2.00;1.57;;;7.20;77.90;;;-142.21;100.00;112049.66;4972893;28;20510;-80
2022/01/08 04:37:43;;;;;;;3.27;1.50;;;7.20;78.40;;;-142.21;100.00;112049.66;4960876;28;20847;-80
2022/01/08 04:40:11;;;;;;;1.93;1.50;;;7.20;78.50;;;-142.21;100.00;112049.66;4955912;28;20527;-79
2022/01/08 04:42:39;;;;;;;1.70;1.50;;;7.20;79.10;;;-142.21;100.00;112049.66;4953357;29;20517;-78
2022/01/08 04:45:09;;;;;;;2.20;2.00;;;7.20;78.60;;;-142.21;100.00;112049.66;4956237;29;20452;-80
2022/01/08 04:47:37;;;;;;;1.67;1.50;;;7.10;79.40;;;-142.21;100.00;112049.66;4954539;29;20453;-79
2022/01/08 04:50:06;;;;;;;2.23;1.70;;;7.20;79.80;;;-142.21;100.00;112049.66;4967760;28;20579;-80
2022/01/08 04:52:33;;;;;;;2.43;1.87;;;7.30;79.70;;;-142.21;100.00;112049.66;4974973;28;20960;-78
2022/01/08 04:55:00;;;;;;;2.13;1.60;;;7.40;78.90;;;-142.21;100.00;112049.66;4973211;28;20464;-79
2022/01/08 04:57:27;;;;;;;2.67;1.60;;;7.50;78.50;;;-142.21;100.00;112049.66;4973333;28;20455;-79
2022/01/08 04:59:55;;;;;;;1.43;1.20;;;7.50;78.20;;;-142.21;100.00;112049.66;4972338;28;20454;-79
2022/01/08 05:02:22;;;;;;;1.83;1.73;;;7.60;78.10;;;-142.21;100.00;112049.66;4969928;28;20452;-80
2022/01/08 05:04:50;;;;;;;1.50;1.20;;;7.60;77.90;;;-142.21;100.00;112049.66;4977163;28;20503;-79
2022/01/08 05:07:18;;;;;;;1.40;1.10;;;7.60;78.10;;;-142.21;100.00;112049.66;4957511;29;20532;-79
2022/01/08 05:09:45;;;;;;;1.40;1.30;;;7.60;76.90;;;-142.21;100.00;112049.66;4957414;29;20497;-78
2022/01/08 05:12:12;;;;;;;1.63;0.80;;;7.60;76.60;;;-142.21;100.00;112049.66;4975731;28;20542;-79
2022/01/08 05:14:39;;;;;;;1.07;0.93;;;7.70;76.40;;;-142.21;100.00;112049.66;4976912;28;20454;-79
2022/01/08 05:17:07;;;;;;;1.13;0.73;;;7.70;75.80;;;-142.21;100.00;112049.66;4975854;28;20551;-79
2022/01/08 05:19:42;;;;;;;3.23;1.20;;;7.70;76.00;;;-142.21;100.00;112049.66;4976793;28;20506;-79
2022/01/08 05:22:18;;;;;;;0.60;0.60;;;7.80;75.50;;;-142.21;100.00;112049.66;4976488;28;20482;-79
2022/01/08 05:24:46;;;;;;;1.17;0.60;;;7.80;74.70;;;-142.21;100.00;112049.66;4976378;28;20523;-79
2022/01/08 05:27:17;;;;;;;0.50;0.50;;;7.80;74.50;;;-142.21;100.00;112049.66;4976246;28;20478;-80
2022/01/08 05:29:45;;;;;;;0.37;0.37;;;7.80;74.20;;;-142.21;100.00;112049.66;4976321;28;21009;-79
2022/01/08 05:32:16;;;;;;;0.70;0.70;;;7.80;74.10;;;-142.21;100.00;112049.66;4975514;28;20982;-79
2022/01/08 05:34:44;;;;;;;0.60;0.40;;;7.90;73.70;;;-142.21;100.00;112049.66;4960138;28;20460;-79
2022/01/08 05:37:14;;;;;;;0.40;0.40;;;7.90;73.90;;;-142.21;100.00;112049.66;4956900;29;20456;-79
2022/01/08 05:39:41;;;;;;;0.50;0.50;;;8.00;73.20;;;-142.21;100.00;112049.66;4956814;29;20452;-79
2022/01/08 05:42:09;;;;;;;0.43;0.43;;;8.00;73.10;;;-142.21;100.00;112049.66;4954464;29;20563;-80
2022/01/08 05:44:36;;;;;;;1.07;0.60;;;8.00;73.10;;;-142.21;100.00;112049.66;4957439;28;20457;-79
2022/01/08 05:47:05;;;;;;;0.57;0.57;;;7.90;72.40;;;-142.21;100.00;112049.66;4975816;28;20447;-79
2022/01/08 05:49:33;;;;;;;1.07;0.70;;;7.90;72.70;;;-142.21;100.00;112049.66;4975415;28;20910;-80
2022/01/08 05:52:00;;;;;;;1.27;0.70;;;8.00;72.60;;;-142.21;100.00;112049.66;4976156;28;20546;-80
2022/01/08 05:54:29;;;;;;;1.43;0.70;;;7.90;71.90;;;-142.21;100.00;112049.66;4975740;28;20462;-79
2022/01/08 05:56:56;;;;;;;0.70;0.63;;;7.90;71.80;;;-142.21;100.00;112049.66;4976059;28;20945;-80
2022/01/08 05:59:26;;;;;;;0.70;0.70;;;7.90;71.10;;;-142.21;100.00;112049.66;4976141;28;20471;-80
2022/01/08 06:01:54;;;;;;;1.17;0.70;;;7.90;71.40;;;-142.21;100.00;112049.66;4975258;28;20448;-79
2022/01/08 06:04:21;;;;;;;1.53;1.00;;;7.90;71.30;;;-142.21;100.00;112049.66;4976007;28;20466;-79
2022/01/08 06:06:48;;;;;;;1.13;0.90;;;7.90;70.50;;;-142.21;100.00;112049.66;4975414;28;20454;-79
2022/01/08 06:09:16;;;;;;;0.90;0.77;;;7.80;70.90;;;-142.21;100.00;112049.66;4975714;28;20849;-80
2022/01/08 06:11:45;;;;;;;1.30;1.00;;;7.80;70.50;;;-142.21;100.00;112049.66;4955617;28;20215;-80
2022/01/08 06:14:13;;;;;;;1.33;1.23;;;7.70;69.80;;;-142.21;100.00;112049.66;4959041;28;20487;-80
2022/01/08 06:16:40;;;;;;;1.00;1.00;;;7.70;71.10;;;-142.21;100.00;112049.66;4974413;28;20479;-79
2022/01/08 06:19:10;;;;;;;2.40;1.50;;;7.70;70.10;;;-142.21;100.00;112049.66;4956330;29;20536;-80
2022/01/08 06:21:38;;;;;;;1.53;1.23;;;7.70;69.60;;;-142.21;100.00;112049.66;4958602;28;20529;-79
2022/01/08 06:24:07;;;;;;;1.13;1.03;;;7.70;69.90;;;-142.21;100.00;112049.66;4975140;28;21007;-80
2022/01/08 06:26:35;;;;;;;2.47;1.30;;;7.70;69.60;;;-142.21;100.00;112049.66;4963632;28;20448;-79
2022/01/08 06:29:04;;;;;;;2.17;1.10;;;7.70;69.60;;;-142.21;100.00;112049.66;4974526;28;20534;-79
2022/01/08 06:31:31;;;;;;;1.10;1.00;;;7.70;69.60;;;-142.21;100.00;112049.66;4975479;28;20805;-79
2022/01/08 06:33:58;;;;;;;1.30;1.20;;;7.70;69.60;;;-142.21;100.00;112049.66;4975100;28;20456;-80
2022/01/08 06:36:26;;;;;;;1.13;1.00;;;7.70;69.30;;;-142.21;100.00;112049.66;4975521;28;20502;-79
2022/01/08 06:38:54;;;;;;;1.53;1.30;;;7.60;68.30;;;-142.21;100.00;112049.66;4975125;28;20498;-80
2022/01/08 06:41:22;;;;;;;2.90;1.80;;;7.50;69.10;;;-142.21;100.00;112049.66;4974383;28;20570;-79
2022/01/08 06:43:49;;;;;;;2.53;1.40;;;7.60;69.20;;;-142.21;100.00;112049.66;4974934;28;20941;-79
2022/01/08 06:46:18;;;;;;;1.90;1.37;;;7.40;69.10;;;-142.21;100.00;112049.66;4974873;28;20470;-79
2022/01/08 06:48:45;;;;;;;2.00;1.40;;;7.40;69.20;;;-142.21;100.00;112049.66;4974970;28;20555;-79
2022/01/08 06:51:12;;;;;;;1.73;1.57;;;7.40;69.20;;;-142.21;100.00;112049.66;4974005;28;20494;-79
2022/01/08 06:53:39;;;;;;;1.50;1.37;;;7.40;69.40;;;-142.21;100.00;112049.66;4967472;28;20536;-80
2022/01/08 06:56:07;;;;;;;1.98;1.48;;;7.30;68.90;;;-142.21;100.00;112049.66;4955989;29;20556;-79
2022/01/08 06:58:35;;;;;;;2.17;1.33;;;7.30;69.40;;;-142.21;100.00;112049.66;4955439;29;20228;-79
2022/01/08 07:01:02;;;;;;;1.40;1.30;;;7.30;70.00;;;-142.21;100.00;112049.66;4955778;29;21044;-80
2022/01/08 07:03:30;;;;;;;2.60;1.43;;;7.30;69.80;;;-142.21;100.00;112049.66;4960455;28;20467;-79
2022/01/08 07:05:58;;;;;;;1.60;1.13;;;7.20;69.40;;;-142.21;100.00;112049.66;4974759;28;20456;-80
2022/01/08 07:08:25;;;;;;;2.03;1.40;;;7.20;69.60;;;-142.21;100.00;112049.66;4974354;28;20724;-80
2022/01/08 07:10:52;;;;;;;2.90;1.33;;;7.20;69.80;;;-142.21;100.00;112049.66;4974765;28;20594;-80
2022/01/08 07:13:19;;;;;;;2.70;1.23;;;7.20;69.80;;;-142.21;100.00;112049.66;4974205;28;20515;-79
2022/01/08 07:15:46;;;;;;;1.87;1.10;;;7.20;70.00;;;-142.21;100.00;112049.66;4959241;28;20475;-79
2022/01/08 07:18:14;;;;;;;1.73;1.20;;;7.20;70.30;;;-142.21;100.00;112049.66;4959580;28;20462;-79
2022/01/08 07:20:43;;;;;;;1.43;1.00;;;7.20;70.40;;;-142.21;100.00;112049.66;4973828;28;20542;-80
2022/01/08 07:23:10;;;;;;;2.63;1.00;;;7.20;70.10;;;-142.21;100.00;112049.66;4961136;28;20524;-79
2022/01/08 07:25:37;;;;;;;1.17;1.07;;;7.20;69.70;;;-142.21;100.00;112049.66;4954750;29;20453;-80
2022/01/08 07:28:05;;;;;;;1.10;1.00;;;7.20;70.20;;;-142.21;100.00;112049.66;4954790;29;20544;-80
2022/01/08 07:30:32;;;;;;;2.63;1.27;;;7.20;70.30;;;-142.21;100.00;112049.66;4959341;28;20487;-81
2022/01/08 07:32:59;;;;;;;3.53;1.10;;;7.10;69.90;;;-142.21;100.00;112049.66;4967799;28;20486;-81
2022/01/08 07:35:26;;;;;;;2.00;1.17;;;7.10;70.30;;;-142.21;100.00;112049.66;4974020;28;20534;-80
2022/01/08 07:37:55;;;;;;;1.88;1.13;;;7.10;70.40;;;-142.21;100.00;112049.66;4973758;28;20812;-80
2022/01/08 07:40:23;;;;;;;2.17;1.13;;;7.10;70.30;;;-142.21;100.00;112049.66;4971058;28;20205;-80
2022/01/08 07:42:52;;;;;;;2.10;1.23;;;7.10;70.50;;;-142.21;100.00;112049.66;4953844;29;20480;-80
2022/01/08 07:45:20;;;;;;;1.23;1.00;;;7.10;70.40;;;-142.21;100.00;112049.66;4955904;29;20255;-79
2022/01/08 07:47:48;;;;;;;2.55;1.33;;;7.10;70.80;;;-142.21;100.00;112049.66;4969888;28;20227;-80
2022/01/08 07:50:17;;;;;;;3.95;1.40;;;7.00;70.30;;;-142.21;100.00;112049.66;4973410;28;20755;-80
2022/01/08 07:52:44;;;;;;;1.83;1.40;;;7.10;69.80;;;-142.21;100.00;112049.66;4967833;28;20292;-81
2022/01/08 07:55:13;;;;;;;2.03;1.40;;;7.10;69.40;;;-142.21;100.00;112049.66;4974196;28;20479;-80
2022/01/08 07:57:47;;;;;;;2.90;1.63;;;7.10;68.90;;;-142.21;100.00;112049.66;4973604;28;20872;-80
2022/01/08 08:00:16;;;;;;;2.90;1.40;;;7.10;68.80;;;-142.21;100.00;112049.66;4973604;28;20435;-80
2022/01/08 08:02:46;;;;;;;2.43;1.50;;;7.00;68.70;;;-142.21;100.00;112049.66;4973271;28;20272;-80
2022/01/08 08:05:14;;;;;;;1.93;1.30;;;7.00;68.60;;;-142.21;100.00;112049.66;4951202;28;20584;-79
2022/01/08 08:07:41;;;;;;;2.77;1.40;;;7.10;69.20;;;-142.21;100.00;112049.66;4965425;28;20458;-79
2022/01/08 08:10:13;;;;;;;2.77;1.53;;;7.10;68.20;;;-142.21;100.00;112049.66;4972768;28;20501;-80
2022/01/08 08:12:41;;;;;;;2.22;1.67;;;7.20;68.70;;;-142.21;100.00;112049.66;4973704;28;20440;-79
2022/01/08 08:15:13;;;;;;;2.50;1.70;;;7.20;69.20;;;-142.21;100.00;112049.66;4972610;28;20311;-79
2022/01/08 08:17:40;;;;;;;2.43;1.50;;;7.20;69.20;;;-142.21;100.00;112049.66;4973183;28;20471;-79
2022/01/08 08:20:13;;;;;;;2.50;2.00;;;7.20;69.10;;;-142.21;100.00;112049.66;4955868;28;20447;-79
2022/01/08 08:22:41;;;;;;;3.33;1.57;;;7.20;69.40;;;-142.21;100.00;112049.66;4964165;28;20520;-78
2022/01/08 08:25:11;;;;;;;2.23;1.60;;;7.30;69.30;;;-142.21;100.00;112049.66;4972865;28;20506;-79
2022/01/08 08:27:41;;;;;;;2.28;2.05;;;7.20;69.10;;;-142.21;100.00;112049.66;4974604;28;20812;-79
2022/01/08 08:30:12;;;;;;;2.90;2.10;;;7.20;69.00;;;-142.21;100.00;112049.66;4969350;28;20220;-76
2022/01/08 08:32:39;;;;;;;2.97;2.17;;;7.20;69.10;;;-142.21;100.00;112049.66;4973705;28;20908;-79
2022/01/08 08:35:08;;;;;;;6.13;2.60;;;7.20;68.90;;;-142.21;100.00;112049.66;4973232;28;20492;-80
2022/01/08 08:37:37;;;;;;;3.47;2.30;;;7.20;68.90;;;-142.21;100.00;112049.66;4972775;28;20452;-79
2022/01/08 08:40:06;;;;;;;4.33;2.53;;;7.20;68.90;;;-142.21;100.00;112049.66;4964795;28;20454;-79
2022/01/08 08:42:33;;;;;;;4.30;2.20;;;7.20;68.90;;;-142.21;100.00;112049.66;4974709;28;20514;-80
2022/01/08 08:45:02;;;;;;;3.90;2.47;;;7.20;69.10;;;-142.21;100.00;112049.66;4971169;28;20517;-77
2022/01/08 08:47:29;;;;;;;4.07;2.33;;;7.20;70.10;;;-142.21;100.00;112049.66;4952012;29;20969;-77
2022/01/08 08:49:56;;;;;;;5.00;2.30;;;7.30;68.90;;;-142.21;100.00;112049.66;4961445;28;20546;-76
2022/01/08 08:52:25;;;;;;;4.63;2.50;;;7.30;68.90;;;-142.21;100.00;112049.66;4956324;28;20456;-77
2022/01/08 08:54:53;;;;;;;3.20;2.17;;;7.30;69.80;;;-142.21;100.00;112049.66;4941401;28;20523;-77
2022/01/08 08:57:21;;;;;;;3.43;2.40;;;7.30;68.80;;;-142.21;100.00;112049.66;4974274;28;20507;-77
2022/01/08 08:59:48;;;;;;;4.67;2.40;;;7.40;68.30;;;-142.21;100.00;112049.66;4974672;28;20542;-76
2022/01/08 09:02:16;;;;;;;4.33;2.50;;;7.50;68.00;;;-142.21;100.00;112049.66;4970403;28;20451;-76
2022/01/08 09:04:44;;;;;;;4.15;2.47;;;7.50;67.10;;;-142.21;100.00;112049.66;4973034;28;20482;-78
2022/01/08 09:07:11;;;;;;;6.47;2.27;;;7.60;67.20;;;-142.21;100.00;112049.66;4974699;28;20620;-80
2022/01/08 09:09:38;;;;;;;4.10;2.30;;;7.70;66.60;;;-142.21;100.00;112049.66;4973154;28;21361;-80
2022/01/08 09:12:07;;;;;;;4.73;2.50;;;7.80;66.30;;;-142.21;100.00;112049.66;4955196;28;20502;-80
2022/01/08 09:14:34;;;;;;;4.10;2.40;;;7.80;65.80;;;-142.21;100.00;112049.66;4970008;28;20460;-80
2022/01/08 09:17:05;;;;;;;3.27;2.40;;;8.00;65.40;;;-142.21;100.00;112049.66;4954979;28;20549;-79
2022/01/08 09:19:34;;;;;;;6.50;2.67;;;8.20;65.20;;;-142.21;100.00;112049.66;4972176;28;20448;-80
2022/01/08 09:22:02;;;;;;;4.63;2.80;;;8.30;64.70;;;-142.21;100.00;112049.66;4966571;28;20479;-78
2022/01/08 09:24:33;;;;;;;4.13;2.40;;;8.30;63.90;;;-142.21;100.00;112049.66;4972613;28;20958;-79
2022/01/08 09:27:00;;;;;;;5.80;2.70;;;8.30;63.80;;;-142.21;100.00;112049.66;4972413;28;20451;-78
2022/01/08 09:29:28;;;;;;;4.47;2.70;;;8.30;63.50;;;-142.21;100.00;112049.66;4972316;28;20539;-79
2022/01/08 09:31:55;;;;;;;3.77;2.53;;;8.40;63.90;;;-142.21;100.00;112049.66;4972148;28;20579;-79
2022/01/08 09:34:23;;;;;;;3.90;2.73;;;8.30;63.60;;;-142.21;100.00;112049.66;4972757;28;20546;-79
2022/01/08 09:36:52;;;;;;;5.93;3.10;;;8.30;63.90;;;-142.21;100.00;112049.66;4953269;29;20452;-79
2022/01/08 09:39:20;;;;;;;3.53;2.90;;;8.30;63.80;;;-142.21;100.00;112049.66;4953739;29;20864;-77
2022/01/08 09:41:47;;;;;;;4.33;2.93;;;8.20;63.70;;;-142.21;100.00;112049.66;4953421;28;20465;-75
2022/01/08 09:44:14;;;;;;;5.00;3.42;;;8.20;63.70;;;-142.21;100.00;112049.66;4953208;28;20537;-75
2022/01/08 09:46:42;;;;;;;5.37;2.77;;;8.10;63.60;;;-142.21;100.00;112049.66;4953973;28;20301;-77
2022/01/08 09:49:09;;;;;;;5.60;2.83;;;8.10;63.40;;;-142.21;100.00;112049.66;4974910;28;20480;-75
2022/01/08 09:51:37;;;;;;;3.57;2.47;;;8.10;63.60;;;-142.21;100.00;112049.66;4976191;28;20582;-77
2022/01/08 09:54:07;;;;;;;5.87;3.00;;;8.10;63.50;;;-142.21;100.00;112049.66;4975829;28;20459;-78
2022/01/08 09:56:35;;;;;;;6.10;2.77;;;8.00;63.30;;;-142.21;100.00;112049.66;4976741;28;20478;-76
2022/01/08 09:59:03;;;;;;;5.70;2.73;;;8.10;63.40;;;-142.21;100.00;112049.66;4976182;28;20563;-77
2022/01/08 10:01:34;;;;;;;3.87;2.60;;;8.20;63.30;;;-142.21;100.00;112049.66;4979820;28;20444;-76
2022/01/08 10:04:04;;;;;;;4.57;2.93;;;8.40;62.90;;;-142.21;95.50;112049.66;4976886;28;20487;-75
2022/01/08 10:06:35;;;;;;;3.63;2.37;;;9.00;62.80;;;-142.21;92.05;112049.66;4975724;28;20490;-80
2022/01/08 10:09:07;;;;;;;4.13;2.50;;;9.50;60.80;;;-142.21;89.52;112049.66;4976389;28;20514;-80
2022/01/08 10:11:36;;;;;;;4.60;2.37;;;10.10;58.50;;;-142.21;89.11;112049.66;4975711;28;20488;-77
2022/01/08 10:14:06;;;;;;;5.63;2.37;;;10.20;57.00;;;-142.21;85.65;112049.66;4976067;28;20440;-77
2022/01/08 10:19:30;;;;;;;5.47;3.20;;;10.90;55.20;;;-142.21;82.88;112049.66;4975801;28;20420;-77
2022/01/08 10:21:58;;;;;;;5.77;2.33;;;11.10;55.30;;;-142.21;89.92;112049.66;4976271;28;20456;-77
2022/01/08 10:24:31;;;;;;;4.83;2.00;;;10.70;56.00;;;-142.21;90.88;112049.66;4972345;28;20456;-78
2022/01/08 10:27:04;;;;;;;4.67;2.33;;;10.40;55.70;;;-142.21;90.76;112049.66;4956786;29;20468;-81